Flight Track Log - Related Links

Times and Time Zones

All times are in EDT time to prevent confusion due to time zone crossing. See the ANT207 flight status page for this flight to view local times or setup timezone preferences in your user account.

Time Position Orientation Groundspeed Altitude Reporting Facility
EDT Latitude Longitude Course Direction KTS MPH feet Rate Location/Type
Mon 12:27:00 PM 64.6506 -138.4333 26° Northeast  Level FlightAware Approximate
Mon 12:28:00 PM 64.7018 -138.3746 26° Northeast  Level FlightAware Approximate
Mon 12:29:00 PM 64.7530 -138.3157 26° Northeast  Level FlightAware Approximate
Mon 12:30:00 PM 64.8041 -138.2563 26° Northeast  Level FlightAware Approximate
Mon 12:31:00 PM 64.8552 -138.1965 26° Northeast  Level FlightAware Approximate
Mon 12:32:00 PM 64.9063 -138.1364 26° Northeast  Level FlightAware Approximate
Mon 12:33:00 PM 64.9573 -138.0762 27° Northeast  Level FlightAware Approximate
Mon 12:34:00 PM 65.0083 -138.0157 27° Northeast  Level FlightAware Approximate
Mon 12:35:00 PM 65.0593 -137.9550 27° Northeast  Level FlightAware Approximate
Mon 12:36:00 PM 65.1102 -137.8940 27° Northeast  Level FlightAware Approximate
Mon 12:37:00 PM 65.1611 -137.8329 27° Northeast  Level FlightAware Approximate
Mon 12:38:00 PM 65.2121 -137.7715 27° Northeast  Level FlightAware Approximate
Mon 12:39:00 PM 65.2629 -137.7098 27° Northeast  Level FlightAware Approximate
Mon 12:40:00 PM 65.3138 -137.6479 27° Northeast  Level FlightAware Approximate
Mon 12:41:00 PM 65.3646 -137.5858 27° Northeast  Level FlightAware Approximate
Mon 12:42:00 PM 65.4154 -137.5234 27° Northeast  Level FlightAware Approximate
Mon 12:43:00 PM 65.4662 -137.4608 27° Northeast  Level FlightAware Approximate
Mon 12:44:00 PM 65.5169 -137.3979 27° Northeast  Level FlightAware Approximate
Mon 12:45:00 PM 65.5677 -137.3348 27° Northeast  Level FlightAware Approximate
Mon 12:46:00 PM 65.6184 -137.2715 27° Northeast  Level FlightAware Approximate
Mon 12:47:00 PM 65.6690 -137.2079 27° Northeast  Level FlightAware Approximate
Mon 12:48:00 PM 65.7197 -137.1440 27° Northeast  Level FlightAware Approximate
Mon 12:49:00 PM 65.7703 -137.0799 27° Northeast  Level FlightAware Approximate
Mon 12:50:00 PM 65.8209 -137.0156 28° Northeast  Level FlightAware Approximate
Mon 12:51:00 PM 65.8714 -136.9510 28° Northeast  Level FlightAware Approximate
Mon 12:52:00 PM 65.9220 -136.8861 28° Northeast  Level FlightAware Approximate
Mon 12:53:00 PM 65.9725 -136.8210 28° Northeast  Level FlightAware Approximate
Mon 12:54:00 PM 66.0230 -136.7556 28° Northeast  Level FlightAware Approximate
Mon 12:55:00 PM 66.0734 -136.6900 28° Northeast  Level FlightAware Approximate
Mon 12:56:00 PM 66.1238 -136.6241 28° Northeast  Level FlightAware Approximate
Mon 12:57:00 PM 66.1742 -136.5580 28° Northeast  Level FlightAware Approximate
Mon 12:58:00 PM 66.2246 -136.4915 28° Northeast  Level FlightAware Approximate
Mon 12:59:00 PM 66.2749 -136.4249 28° Northeast  Level FlightAware Approximate
Mon 01:00:00 PM 66.3253 -136.3579 28° Northeast  Level FlightAware Approximate
Mon 01:01:00 PM 66.3755 -136.2907 28° Northeast  Level FlightAware Approximate
Mon 01:02:00 PM 66.4258 -136.2232 28° Northeast  Level FlightAware Approximate
Mon 01:03:00 PM 66.4760 -136.1554 28° Northeast  Level FlightAware Approximate
Mon 01:04:00 PM 66.5262 -136.0874 28° Northeast  Level FlightAware Approximate
Mon 01:05:00 PM 66.5764 -136.0191 28° Northeast  Level FlightAware Approximate
Mon 01:06:00 PM 66.6265 -135.9505 28° Northeast  Level FlightAware Approximate
Mon 01:07:00 PM 66.6766 -135.8816 29° Northeast  Level FlightAware Approximate
Mon 01:08:00 PM 66.7267 -135.8125 29° Northeast  Level FlightAware Approximate
Mon 01:09:00 PM 66.7767 -135.7430 29° Northeast  Level FlightAware Approximate
Mon 01:10:00 PM 66.8267 -135.6733 29° Northeast  Level FlightAware Approximate
Mon 01:11:00 PM 66.8767 -135.6033 29° Northeast  Level FlightAware Approximate
Mon 01:12:00 PM 66.9267 -135.5331 29° Northeast  Level FlightAware Approximate
Mon 01:13:00 PM 66.9766 -135.4625 29° Northeast  Level FlightAware Approximate
Mon 01:14:00 PM 67.0265 -135.3916 29° Northeast  Level FlightAware Approximate
Mon 01:15:00 PM 67.0763 -135.3205 29° Northeast  Level FlightAware Approximate
Mon 01:16:00 PM 67.1262 -135.2491 29° Northeast  Level FlightAware Approximate
Mon 01:17:00 PM 67.1760 -135.1773 29° Northeast  Level FlightAware Approximate
Mon 01:18:00 PM 67.2263 -135.1079 28° Northeast  Level FlightAware Approximate
Mon 01:19:00 PM 67.2767 -135.0386 28° Northeast  Level FlightAware Approximate
Mon 01:20:00 PM 67.3269 -134.9683 30° Northeast  Level FlightAware Approximate
Mon 01:21:00 PM 67.3764 -134.8948 30° Northeast  Level FlightAware Approximate
Mon 01:22:00 PM 67.4259 -134.8210 30° Northeast  Level FlightAware Approximate
Mon 01:23:00 PM 67.4754 -134.7469 30° Northeast  Level FlightAware Approximate
Mon 01:24:00 PM 67.5248 -134.6725 30° Northeast  Level FlightAware Approximate
Mon 01:25:00 PM 67.5742 -134.5978 30° Northeast  Level FlightAware Approximate
Mon 01:26:00 PM 67.6237 -134.5232 29° Northeast  Level FlightAware Approximate
Mon 01:27:00 PM 67.6738 -134.4512 29° Northeast  Level FlightAware Approximate
Mon 01:28:00 PM 67.7238 -134.3789 29° Northeast  Level FlightAware Approximate
Mon 01:29:00 PM 67.7736 -134.3054 32° Northeast  Level FlightAware Approximate
Mon 01:30:00 PM 67.8222 -134.2264 32° Northeast  Level FlightAware Approximate
Mon 01:31:00 PM 67.8708 -134.1470 32° Northeast  Level FlightAware Approximate
Mon 01:32:00 PM 67.9193 -134.0673 32° Northeast  Level FlightAware Approximate
Mon 01:33:00 PM 67.9690 -133.9930 25° Northeast  Level FlightAware Approximate
Mon 01:34:00 PM 68.0204 -133.9273 31° Northeast  Level FlightAware Approximate
Mon 01:35:00 PM 68.0694 -133.8491 31° Northeast  Level FlightAware Approximate
Mon 01:36:00 PM 68.1180 -133.7687 33° Northeast  Level FlightAware Approximate
Mon 01:37:00 PM 68.1657 -133.6850 33° Northeast  Level FlightAware Approximate
Mon 01:38:00 PM 68.2136 -133.6013 33° Northeast  Level FlightAware Approximate
Mon 01:39:00 PM 68.2626 -133.5228 29° Northeast  Level FlightAware Approximate
Mon 01:40:00 PM 68.3000 -133.4667 29° Northeast  Level FlightAware Approximate
Mon 01:41:00 PM 68.3042 -133.4828 29° Northeast  Level Estimated
Mon 01:42:00 PM 68.3042 -133.4828 29° Northeast  Level Estimated
Mon 01:43:00 PM 68.3042 -133.4828 29° Northeast  Level Estimated
Mon 01:44:00 PM 68.3042 -133.4828 29° Northeast  Level Estimated
Mon 01:45:00 PM 68.3042 -133.4828 29° Northeast  Level Estimated
Mon 01:46:00 PM 68.3042 -133.4828 29° Northeast  Level Estimated
Mon 01:47:00 PM 68.3042 -133.4828 29° Northeast  Level Estimated
Mon 01:48:00 PM 68.3042 -133.4828 29° Northeast  Level Estimated
Mon 01:49:00 PM 68.3042 -133.4828 29° Northeast  Level Estimated
Mon 01:50:00 PM 68.3042 -133.4828 29° Northeast  Level Estimated
Mon 01:51:00 PM 68.3042 -133.4828 29° Northeast  Level Estimated
Mon 01:52:00 PM 68.3042 -133.4828 29° Northeast  Level Estimated
Mon 01:53:00 PM 68.3042 -133.4828 29° Northeast  Level Estimated

Login

Don't have an account? Register now (free) for customized features, flight alerts, and more!